sensor_id;sensor_type;location;lat;lon;timestamp;pressure;altitude;pressure_sealevel;temperature;humidity
72558;BME280;60583;50.094;8.748;2023-05-02T00:01:48;100564.41;;;14.46;66.54
72558;BME280;60583;50.094;8.748;2023-05-02T00:04:13;100566.91;;;14.41;66.05
72558;BME280;60583;50.094;8.748;2023-05-02T00:06:39;100568.56;;;14.42;65.70
72558;BME280;60583;50.094;8.748;2023-05-02T00:09:06;100555.34;;;14.40;65.96
72558;BME280;60583;50.094;8.748;2023-05-02T00:11:31;100559.97;;;14.33;67.92
72558;BME280;60583;50.094;8.748;2023-05-02T00:13:57;100568.00;;;14.33;67.96
72558;BME280;60583;50.094;8.748;2023-05-02T00:16:22;100569.25;;;14.31;67.94
72558;BME280;60583;50.094;8.748;2023-05-02T00:18:47;100575.84;;;14.35;67.84
72558;BME280;60583;50.094;8.748;2023-05-02T00:21:13;100578.06;;;14.38;67.59
72558;BME280;60583;50.094;8.748;2023-05-02T00:23:39;100575.84;;;14.35;67.64
72558;BME280;60583;50.094;8.748;2023-05-02T00:26:08;100573.97;;;14.35;67.83
72558;BME280;60583;50.094;8.748;2023-05-02T00:28:33;100579.38;;;14.29;68.52
72558;BME280;60583;50.094;8.748;2023-05-02T00:30:58;100571.94;;;14.31;68.37
72558;BME280;60583;50.094;8.748;2023-05-02T00:33:24;100566.22;;;14.21;67.89
72558;BME280;60583;50.094;8.748;2023-05-02T00:35:49;100566.81;;;14.23;67.72
72558;BME280;60583;50.094;8.748;2023-05-02T00:38:15;100560.91;;;14.14;66.93
72558;BME280;60583;50.094;8.748;2023-05-02T00:40:50;100574.06;;;14.22;67.28
72558;BME280;60583;50.094;8.748;2023-05-02T00:43:17;100563.19;;;14.11;67.57
72558;BME280;60583;50.094;8.748;2023-05-02T00:45:43;100573.25;;;14.15;67.83
72558;BME280;60583;50.094;8.748;2023-05-02T00:48:10;100582.19;;;14.09;68.84
72558;BME280;60583;50.094;8.748;2023-05-02T00:50:40;100573.81;;;13.99;69.40
72558;BME280;60583;50.094;8.748;2023-05-02T00:53:08;100576.06;;;14.02;69.57
72558;BME280;60583;50.094;8.748;2023-05-02T00:55:35;100574.81;;;14.04;69.94
72558;BME280;60583;50.094;8.748;2023-05-02T00:58:10;100568.22;;;14.00;70.00
72558;BME280;60583;50.094;8.748;2023-05-02T01:03:58;100548.72;;;13.87;70.21
72558;BME280;60583;50.094;8.748;2023-05-02T01:06:45;100540.97;;;13.72;70.38
72558;BME280;60583;50.094;8.748;2023-05-02T01:14:40;100571.84;;;13.81;70.21
72558;BME280;60583;50.094;8.748;2023-05-02T01:17:10;100591.25;;;13.77;71.11
72558;BME280;60583;50.094;8.748;2023-05-02T01:19:37;100582.63;;;13.68;71.64
72558;BME280;60583;50.094;8.748;2023-05-02T01:22:07;100587.22;;;13.61;71.89
72558;BME280;60583;50.094;8.748;2023-05-02T01:24:44;100592.56;;;13.55;73.52
72558;BME280;60583;50.094;8.748;2023-05-02T01:27:20;100593.25;;;13.43;73.42
72558;BME280;60583;50.094;8.748;2023-05-02T01:29:49;100599.88;;;13.41;73.45
72558;BME280;60583;50.094;8.748;2023-05-02T01:32:18;100598.66;;;13.30;73.60
72558;BME280;60583;50.094;8.748;2023-05-02T01:34:45;100592.09;;;13.20;73.29
72558;BME280;60583;50.094;8.748;2023-05-02T01:37:12;100582.84;;;13.16;73.76
72558;BME280;60583;50.094;8.748;2023-05-02T01:39:39;100590.28;;;13.07;73.83
72558;BME280;60583;50.094;8.748;2023-05-02T01:42:06;100602.41;;;13.16;73.60
72558;BME280;60583;50.094;8.748;2023-05-02T01:44:32;100605.09;;;13.10;74.14
72558;BME280;60583;50.094;8.748;2023-05-02T01:47:03;100619.09;;;12.99;74.29
72558;BME280;60583;50.094;8.748;2023-05-02T01:49:32;100620.72;;;13.00;74.42
72558;BME280;60583;50.094;8.748;2023-05-02T01:52:02;100615.19;;;12.95;74.15
72558;BME280;60583;50.094;8.748;2023-05-02T01:54:29;100625.28;;;12.93;74.50
72558;BME280;60583;50.094;8.748;2023-05-02T01:56:57;100621.78;;;12.86;74.18
72558;BME280;60583;50.094;8.748;2023-05-02T01:59:24;100626.09;;;12.87;74.31
72558;BME280;60583;50.094;8.748;2023-05-02T02:01:51;100632.50;;;12.86;74.39
72558;BME280;60583;50.094;8.748;2023-05-02T02:04:19;100639.72;;;12.78;74.65
72558;BME280;60583;50.094;8.748;2023-05-02T02:06:51;100626.50;;;12.64;74.68
72558;BME280;60583;50.094;8.748;2023-05-02T02:09:17;100623.22;;;12.62;74.06
72558;BME280;60583;50.094;8.748;2023-05-02T02:11:51;100644.63;;;12.62;74.36
72558;BME280;60583;50.094;8.748;2023-05-02T02:14:21;100649.56;;;12.65;74.50
72558;BME280;60583;50.094;8.748;2023-05-02T02:16:50;100647.72;;;12.65;74.82
72558;BME280;60583;50.094;8.748;2023-05-02T02:19:18;100646.06;;;12.64;75.36
72558;BME280;60583;50.094;8.748;2023-05-02T02:21:46;100644.25;;;12.58;74.82
72558;BME280;60583;50.094;8.748;2023-05-02T02:24:12;100644.22;;;12.52;75.10
72558;BME280;60583;50.094;8.748;2023-05-02T02:26:40;100647.72;;;12.52;75.05
72558;BME280;60583;50.094;8.748;2023-05-02T02:29:06;100652.63;;;12.49;75.56
72558;BME280;60583;50.094;8.748;2023-05-02T02:31:32;100661.47;;;12.30;76.30
72558;BME280;60583;50.094;8.748;2023-05-02T02:33:58;100665.56;;;12.19;77.42
72558;BME280;60583;50.094;8.748;2023-05-02T02:36:48;100672.34;;;12.22;76.37
72558;BME280;60583;50.094;8.748;2023-05-02T02:53:21;100681.91;;;11.90;77.85
72558;BME280;60583;50.094;8.748;2023-05-02T03:01:14;100682.06;;;11.75;78.16
72558;BME280;60583;50.094;8.748;2023-05-02T03:03:42;100651.47;;;11.43;78.56
72558;BME280;60583;50.094;8.748;2023-05-02T03:06:11;100675.72;;;11.48;79.66
72558;BME280;60583;50.094;8.748;2023-05-02T03:08:41;100696.69;;;11.45;80.06
72558;BME280;60583;50.094;8.748;2023-05-02T03:11:07;100671.88;;;11.23;80.53
72558;BME280;60583;50.094;8.748;2023-05-02T03:13:34;100694.94;;;11.31;80.40
72558;BME280;60583;50.094;8.748;2023-05-02T03:16:38;100698.94;;;11.20;80.84
72558;BME280;60583;50.094;8.748;2023-05-02T03:19:05;100649.63;;;10.82;81.21
72558;BME280;60583;50.094;8.748;2023-05-02T03:21:31;100673.41;;;10.77;82.42
72558;BME280;60583;50.094;8.748;2023-05-02T03:24:02;100709.31;;;11.02;81.94
72558;BME280;60583;50.094;8.748;2023-05-02T03:26:28;100701.72;;;10.78;83.26
72558;BME280;60583;50.094;8.748;2023-05-02T03:28:54;100697.25;;;10.85;82.83
72558;BME280;60583;50.094;8.748;2023-05-02T03:31:19;100712.34;;;10.99;82.30
72558;BME280;60583;50.094;8.748;2023-05-02T03:33:45;100717.41;;;11.15;80.92
72558;BME280;60583;50.094;8.748;2023-05-02T03:36:11;100704.34;;;10.99;81.78
72558;BME280;60583;50.094;8.748;2023-05-02T03:38:36;100712.66;;;11.11;81.37
72558;BME280;60583;50.094;8.748;2023-05-02T03:41:02;100717.97;;;11.11;81.05
72558;BME280;60583;50.094;8.748;2023-05-02T03:43:28;100691.91;;;10.85;81.99
72558;BME280;60583;50.094;8.748;2023-05-02T03:45:54;100721.19;;;11.00;82.08
72558;BME280;60583;50.094;8.748;2023-05-02T03:48:19;100732.13;;;11.05;82.41
72558;BME280;60583;50.094;8.748;2023-05-02T03:50:45;100734.44;;;11.14;81.69
72558;BME280;60583;50.094;8.748;2023-05-02T03:53:10;100726.56;;;11.06;81.85
72558;BME280;60583;50.094;8.748;2023-05-02T03:55:39;100733.31;;;11.02;82.15
72558;BME280;60583;50.094;8.748;2023-05-02T03:58:06;100747.66;;;11.22;81.56
72558;BME280;60583;50.094;8.748;2023-05-02T04:00:31;100751.44;;;11.34;81.42
72558;BME280;60583;50.094;8.748;2023-05-02T04:02:56;100743.78;;;11.25;81.00
72558;BME280;60583;50.094;8.748;2023-05-02T04:05:22;100757.59;;;11.35;81.51
72558;BME280;60583;50.094;8.748;2023-05-02T04:07:47;100762.50;;;11.31;81.65
72558;BME280;60583;50.094;8.748;2023-05-02T04:10:13;100759.06;;;11.37;81.76
72558;BME280;60583;50.094;8.748;2023-05-02T04:12:41;100742.34;;;11.29;81.88
72558;BME280;60583;50.094;8.748;2023-05-02T04:15:08;100745.47;;;11.32;82.14
72558;BME280;60583;50.094;8.748;2023-05-02T04:17:34;100756.19;;;11.39;82.07
72558;BME280;60583;50.094;8.748;2023-05-02T04:20:00;100748.38;;;11.37;81.90
72558;BME280;60583;50.094;8.748;2023-05-02T04:22:25;100767.81;;;11.52;82.14
72558;BME280;60583;50.094;8.748;2023-05-02T04:24:52;100770.72;;;11.58;82.16
72558;BME280;60583;50.094;8.748;2023-05-02T04:27:17;100755.22;;;11.46;81.81
72558;BME280;60583;50.094;8.748;2023-05-02T04:29:43;100774.53;;;11.48;82.15
72558;BME280;60583;50.094;8.748;2023-05-02T04:32:08;100782.31;;;11.43;82.57
72558;BME280;60583;50.094;8.748;2023-05-02T04:34:34;100789.31;;;11.44;82.49
72558;BME280;60583;50.094;8.748;2023-05-02T04:37:00;100795.41;;;11.38;82.35
72558;BME280;60583;50.094;8.748;2023-05-02T04:39:25;100781.06;;;11.18;83.10
72558;BME280;60583;50.094;8.748;2023-05-02T04:41:51;100802.41;;;11.39;82.52
72558;BME280;60583;50.094;8.748;2023-05-02T04:44:16;100804.75;;;11.49;82.23
72558;BME280;60583;50.094;8.748;2023-05-02T04:46:42;100811.16;;;11.54;83.00
72558;BME280;60583;50.094;8.748;2023-05-02T04:49:07;100816.50;;;11.54;82.28
72558;BME280;60583;50.094;8.748;2023-05-02T04:51:34;100817.38;;;11.62;82.21
72558;BME280;60583;50.094;8.748;2023-05-02T04:53:59;100815.69;;;11.61;81.60
72558;BME280;60583;50.094;8.748;2023-05-02T04:56:25;100803.06;;;11.48;82.25
72558;BME280;60583;50.094;8.748;2023-05-02T04:58:51;100847.06;;;11.73;81.40
72558;BME280;60583;50.094;8.748;2023-05-02T05:01:16;100851.25;;;11.82;82.00
72558;BME280;60583;50.094;8.748;2023-05-02T05:03:42;100808.34;;;11.63;81.28
72558;BME280;60583;50.094;8.748;2023-05-02T05:06:07;100848.81;;;11.87;81.60
72558;BME280;60583;50.094;8.748;2023-05-02T05:08:33;100845.31;;;11.87;81.92
72558;BME280;60583;50.094;8.748;2023-05-02T05:10:58;100851.34;;;11.95;81.37
72558;BME280;60583;50.094;8.748;2023-05-02T05:13:24;100852.81;;;11.98;80.93
72558;BME280;60583;50.094;8.748;2023-05-02T05:15:49;100869.25;;;12.01;80.92
72558;BME280;60583;50.094;8.748;2023-05-02T05:18:15;100852.00;;;12.04;80.84
72558;BME280;60583;50.094;8.748;2023-05-02T05:20:40;100868.41;;;11.94;81.48
72558;BME280;60583;50.094;8.748;2023-05-02T05:23:06;100871.09;;;12.01;81.92
72558;BME280;60583;50.094;8.748;2023-05-02T05:25:31;100872.38;;;12.05;80.21
72558;BME280;60583;50.094;8.748;2023-05-02T05:28:00;100881.25;;;12.12;81.34
72558;BME280;60583;50.094;8.748;2023-05-02T05:30:26;100880.06;;;12.21;79.74
72558;BME280;60583;50.094;8.748;2023-05-02T05:32:51;100892.66;;;12.27;78.11
72558;BME280;60583;50.094;8.748;2023-05-02T05:35:17;100884.44;;;12.29;77.93
72558;BME280;60583;50.094;8.748;2023-05-02T05:37:42;100893.34;;;12.42;77.68
72558;BME280;60583;50.094;8.748;2023-05-02T05:40:08;100891.13;;;12.46;76.87
72558;BME280;60583;50.094;8.748;2023-05-02T05:42:34;100906.00;;;12.61;76.36
72558;BME280;60583;50.094;8.748;2023-05-02T05:45:00;100899.41;;;12.57;75.93
72558;BME280;60583;50.094;8.748;2023-05-02T05:47:25;100902.28;;;12.56;75.56
72558;BME280;60583;50.094;8.748;2023-05-02T05:49:54;100914.69;;;12.70;75.48
72558;BME280;60583;50.094;8.748;2023-05-02T05:52:20;100915.13;;;12.73;75.47
72558;BME280;60583;50.094;8.748;2023-05-02T05:54:45;100925.03;;;12.79;75.43
72558;BME280;60583;50.094;8.748;2023-05-02T05:57:11;100927.09;;;12.84;74.77
72558;BME280;60583;50.094;8.748;2023-05-02T05:59:36;100930.81;;;12.90;75.25
72558;BME280;60583;50.094;8.748;2023-05-02T06:02:02;100911.22;;;12.76;74.53
72558;BME280;60583;50.094;8.748;2023-05-02T06:04:28;100920.94;;;12.90;74.23
72558;BME280;60583;50.094;8.748;2023-05-02T06:06:53;100927.59;;;13.01;74.20
72558;BME280;60583;50.094;8.748;2023-05-02T06:09:19;100933.63;;;13.16;73.20
72558;BME280;60583;50.094;8.748;2023-05-02T06:11:44;100932.41;;;13.25;72.90
72558;BME280;60583;50.094;8.748;2023-05-02T06:14:10;100933.47;;;13.30;73.03
72558;BME280;60583;50.094;8.748;2023-05-02T06:16:35;100932.66;;;13.36;71.96
72558;BME280;60583;50.094;8.748;2023-05-02T06:19:01;100935.75;;;13.40;72.47
72558;BME280;60583;50.094;8.748;2023-05-02T06:21:26;100938.81;;;13.37;72.06
72558;BME280;60583;50.094;8.748;2023-05-02T06:23:52;100930.56;;;13.19;71.51
72558;BME280;60583;50.094;8.748;2023-05-02T06:26:17;100952.44;;;13.29;72.07
72558;BME280;60583;50.094;8.748;2023-05-02T06:28:42;100925.63;;;13.29;71.25
72558;BME280;60583;50.094;8.748;2023-05-02T06:31:08;100944.41;;;13.35;71.20
72558;BME280;60583;50.094;8.748;2023-05-02T06:33:34;100949.09;;;13.27;71.70
72558;BME280;60583;50.094;8.748;2023-05-02T06:36:00;100948.47;;;13.18;71.39
72558;BME280;60583;50.094;8.748;2023-05-02T06:38:25;100966.00;;;13.27;71.43
72558;BME280;60583;50.094;8.748;2023-05-02T06:40:50;100946.94;;;13.03;71.31
72558;BME280;60583;50.094;8.748;2023-05-02T06:43:18;100968.44;;;13.16;71.53
72558;BME280;60583;50.094;8.748;2023-05-02T06:45:43;100970.13;;;13.30;71.50
72558;BME280;60583;50.094;8.748;2023-05-02T06:48:09;100980.22;;;13.34;70.30
72558;BME280;60583;50.094;8.748;2023-05-02T06:50:35;100966.63;;;13.23;70.84
72558;BME280;60583;50.094;8.748;2023-05-02T06:53:02;100982.94;;;13.41;71.28
72558;BME280;60583;50.094;8.748;2023-05-02T06:55:28;100988.97;;;13.56;71.28
72558;BME280;60583;50.094;8.748;2023-05-02T06:57:54;100982.59;;;13.64;70.67
72558;BME280;60583;50.094;8.748;2023-05-02T07:00:20;100970.16;;;13.43;69.89
72558;BME280;60583;50.094;8.748;2023-05-02T07:02:46;100987.25;;;13.42;69.41
72558;BME280;60583;50.094;8.748;2023-05-02T07:05:13;100986.69;;;13.47;69.32
72558;BME280;60583;50.094;8.748;2023-05-02T07:07:40;100980.72;;;13.51;69.83
72558;BME280;60583;50.094;8.748;2023-05-02T07:10:06;100966.91;;;13.54;69.81
72558;BME280;60583;50.094;8.748;2023-05-02T07:12:32;100978.47;;;13.74;69.40
72558;BME280;60583;50.094;8.748;2023-05-02T07:14:57;100995.81;;;13.91;68.72
72558;BME280;60583;50.094;8.748;2023-05-02T07:17:22;100984.66;;;13.81;68.42
72558;BME280;60583;50.094;8.748;2023-05-02T07:19:48;100990.47;;;13.91;68.43
72558;BME280;60583;50.094;8.748;2023-05-02T07:22:13;100998.72;;;13.96;67.81
72558;BME280;60583;50.094;8.748;2023-05-02T07:24:40;101016.84;;;14.07;67.67
72558;BME280;60583;50.094;8.748;2023-05-02T07:27:08;101026.75;;;14.20;68.28
72558;BME280;60583;50.094;8.748;2023-05-02T07:29:33;101017.69;;;14.28;66.69
72558;BME280;60583;50.094;8.748;2023-05-02T07:31:59;101026.19;;;14.31;66.82
72558;BME280;60583;50.094;8.748;2023-05-02T07:34:24;101013.16;;;14.22;66.64
72558;BME280;60583;50.094;8.748;2023-05-02T07:36:50;101031.97;;;14.35;66.15
72558;BME280;60583;50.094;8.748;2023-05-02T07:39:15;101030.50;;;14.39;65.30
72558;BME280;60583;50.094;8.748;2023-05-02T07:41:40;101035.03;;;14.38;67.03
72558;BME280;60583;50.094;8.748;2023-05-02T07:44:06;101021.25;;;14.35;66.78
72558;BME280;60583;50.094;8.748;2023-05-02T07:46:31;101036.69;;;14.46;66.87
72558;BME280;60583;50.094;8.748;2023-05-02T07:48:57;101030.50;;;14.52;67.97
72558;BME280;60583;50.094;8.748;2023-05-02T07:51:22;101027.59;;;14.27;67.32
72558;BME280;60583;50.094;8.748;2023-05-02T07:53:49;101023.28;;;14.39;67.20
72558;BME280;60583;50.094;8.748;2023-05-02T07:56:17;101031.13;;;14.41;66.98
72558;BME280;60583;50.094;8.748;2023-05-02T07:58:43;101014.63;;;14.37;67.09
72558;BME280;60583;50.094;8.748;2023-05-02T08:01:09;101037.13;;;14.36;65.93
72558;BME280;60583;50.094;8.748;2023-05-02T08:03:34;101039.78;;;14.30;66.69
72558;BME280;60583;50.094;8.748;2023-05-02T08:05:59;101043.69;;;14.27;65.95
72558;BME280;60583;50.094;8.748;2023-05-02T08:08:26;101039.56;;;14.25;66.38
72558;BME280;60583;50.094;8.748;2023-05-02T08:10:52;101041.44;;;14.31;65.70
72558;BME280;60583;50.094;8.748;2023-05-02T08:13:17;101036.91;;;14.38;65.91
72558;BME280;60583;50.094;8.748;2023-05-02T08:15:43;101038.75;;;14.44;65.93
72558;BME280;60583;50.094;8.748;2023-05-02T08:18:08;101050.72;;;14.48;66.16
72558;BME280;60583;50.094;8.748;2023-05-02T08:20:34;101049.28;;;14.39;66.52
72558;BME280;60583;50.094;8.748;2023-05-02T08:22:59;101042.25;;;14.25;66.80
72558;BME280;60583;50.094;8.748;2023-05-02T08:25:25;101055.22;;;14.28;66.34
72558;BME280;60583;50.094;8.748;2023-05-02T08:27:50;101054.66;;;14.39;65.86
72558;BME280;60583;50.094;8.748;2023-05-02T08:30:16;101052.00;;;14.32;65.41
72558;BME280;60583;50.094;8.748;2023-05-02T08:32:41;101044.94;;;14.38;65.67
72558;BME280;60583;50.094;8.748;2023-05-02T08:35:07;101057.72;;;14.29;64.99
72558;BME280;60583;50.094;8.748;2023-05-02T08:37:32;101067.06;;;14.40;64.88
72558;BME280;60583;50.094;8.748;2023-05-02T08:39:59;101070.97;;;14.37;64.77
72558;BME280;60583;50.094;8.748;2023-05-02T08:42:25;101065.81;;;14.49;64.07
72558;BME280;60583;50.094;8.748;2023-05-02T08:44:50;101079.63;;;14.46;63.95
72558;BME280;60583;50.094;8.748;2023-05-02T08:47:17;101080.88;;;14.50;64.11
72558;BME280;60583;50.094;8.748;2023-05-02T08:49:43;101075.50;;;14.37;63.66
72558;BME280;60583;50.094;8.748;2023-05-02T08:52:11;101052.19;;;14.31;63.60
72558;BME280;60583;50.094;8.748;2023-05-02T08:54:37;101069.09;;;14.51;63.90
72558;BME280;60583;50.094;8.748;2023-05-02T08:57:03;101087.47;;;14.54;63.67
72558;BME280;60583;50.094;8.748;2023-05-02T08:59:29;101094.94;;;14.65;64.16
72558;BME280;60583;50.094;8.748;2023-05-02T09:02:00;101102.13;;;14.58;63.27
72558;BME280;60583;50.094;8.748;2023-05-02T09:04:30;101085.81;;;14.53;64.49
72558;BME280;60583;50.094;8.748;2023-05-02T09:06:57;101104.00;;;14.51;64.33
72558;BME280;60583;50.094;8.748;2023-05-02T09:09:23;101108.94;;;14.54;64.14
72558;BME280;60583;50.094;8.748;2023-05-02T09:11:49;101113.50;;;14.66;64.50
72558;BME280;60583;50.094;8.748;2023-05-02T09:14:16;101126.09;;;14.79;65.07
72558;BME280;60583;50.094;8.748;2023-05-02T09:16:42;101122.59;;;14.85;64.03
72558;BME280;60583;50.094;8.748;2023-05-02T09:19:08;101132.06;;;14.94;63.63
72558;BME280;60583;50.094;8.748;2023-05-02T09:21:39;101131.63;;;15.04;63.46
72558;BME280;60583;50.094;8.748;2023-05-02T09:24:16;101121.50;;;14.99;62.64
72558;BME280;60583;50.094;8.748;2023-05-02T09:26:42;101118.84;;;14.99;61.85
72558;BME280;60583;50.094;8.748;2023-05-02T09:29:08;101113.88;;;14.83;61.65
72558;BME280;60583;50.094;8.748;2023-05-02T09:31:34;101133.94;;;15.00;62.65
72558;BME280;60583;50.094;8.748;2023-05-02T09:34:14;101125.03;;;15.13;62.45
72558;BME280;60583;50.094;8.748;2023-05-02T09:36:42;101130.78;;;15.16;61.47
72558;BME280;60583;50.094;8.748;2023-05-02T09:41:41;101126.00;;;15.18;61.27
72558;BME280;60583;50.094;8.748;2023-05-02T09:44:09;101117.56;;;15.08;60.57
72558;BME280;60583;50.094;8.748;2023-05-02T09:46:52;101130.72;;;15.36;61.01
72558;BME280;60583;50.094;8.748;2023-05-02T09:49:18;101121.59;;;15.57;61.08
72558;BME280;60583;50.094;8.748;2023-05-02T09:51:47;101129.25;;;15.53;60.33
72558;BME280;60583;50.094;8.748;2023-05-02T09:54:14;101137.44;;;15.71;59.49
72558;BME280;60583;50.094;8.748;2023-05-02T09:56:53;101133.03;;;15.90;58.24
72558;BME280;60583;50.094;8.748;2023-05-02T09:59:21;101106.34;;;16.20;57.84
72558;BME280;60583;50.094;8.748;2023-05-02T10:01:54;101134.63;;;17.09;56.74
72558;BME280;60583;50.094;8.748;2023-05-02T10:04:20;101124.72;;;17.64;54.66
72558;BME280;60583;50.094;8.748;2023-05-02T10:06:46;101131.28;;;17.68;54.40
72558;BME280;60583;50.094;8.748;2023-05-02T10:09:13;101132.75;;;17.82;52.97
72558;BME280;60583;50.094;8.748;2023-05-02T10:11:41;101129.34;;;17.57;52.99
72558;BME280;60583;50.094;8.748;2023-05-02T10:14:08;101129.03;;;17.65;51.58
72558;BME280;60583;50.094;8.748;2023-05-02T10:16:36;101124.63;;;17.53;51.69
72558;BME280;60583;50.094;8.748;2023-05-02T10:19:08;101123.31;;;17.37;51.64
72558;BME280;60583;50.094;8.748;2023-05-02T10:21:35;101122.13;;;17.15;51.36
72558;BME280;60583;50.094;8.748;2023-05-02T10:24:01;101132.63;;;17.41;51.71
72558;BME280;60583;50.094;8.748;2023-05-02T10:26:30;101135.84;;;18.16;51.26
72558;BME280;60583;50.094;8.748;2023-05-02T10:28:56;101137.50;;;18.58;50.79
72558;BME280;60583;50.094;8.748;2023-05-02T10:31:21;101121.03;;;18.48;50.77
72558;BME280;60583;50.094;8.748;2023-05-02T10:33:50;101123.44;;;19.26;50.53
72558;BME280;60583;50.094;8.748;2023-05-02T10:36:21;101110.75;;;18.91;49.45
72558;BME280;60583;50.094;8.748;2023-05-02T10:38:47;101127.84;;;18.51;51.63
72558;BME280;60583;50.094;8.748;2023-05-02T10:41:15;101136.22;;;18.19;52.10
72558;BME280;60583;50.094;8.748;2023-05-02T10:43:46;101112.25;;;17.81;51.59
72558;BME280;60583;50.094;8.748;2023-05-02T10:46:38;101135.41;;;17.53;52.70
72558;BME280;60583;50.094;8.748;2023-05-02T10:49:08;101124.03;;;17.69;52.03
72558;BME280;60583;50.094;8.748;2023-05-02T10:51:35;101132.38;;;18.38;51.78
72558;BME280;60583;50.094;8.748;2023-05-02T10:57:02;101119.19;;;20.09;45.65
72558;BME280;60583;50.094;8.748;2023-05-02T10:59:39;101105.91;;;19.17;47.31
72558;BME280;60583;50.094;8.748;2023-05-02T11:05:03;101115.09;;;18.28;50.50
72558;BME280;60583;50.094;8.748;2023-05-02T11:07:31;101105.38;;;17.97;49.90
72558;BME280;60583;50.094;8.748;2023-05-02T11:15:10;101102.03;;;17.47;52.17
72558;BME280;60583;50.094;8.748;2023-05-02T11:20:24;101114.00;;;18.59;48.83
72558;BME280;60583;50.094;8.748;2023-05-02T11:22:55;101101.28;;;20.37;46.75
72558;BME280;60583;50.094;8.748;2023-05-02T11:25:31;101095.31;;;21.66;44.72
72558;BME280;60583;50.094;8.748;2023-05-02T11:27:56;101097.91;;;22.31;39.30
72558;BME280;60583;50.094;8.748;2023-05-02T11:30:42;101090.06;;;23.03;39.93
72558;BME280;60583;50.094;8.748;2023-05-02T11:33:09;101093.16;;;23.27;39.25
72558;BME280;60583;50.094;8.748;2023-05-02T11:35:35;101080.63;;;23.21;40.59
72558;BME280;60583;50.094;8.748;2023-05-02T11:38:10;101077.88;;;22.42;38.37
72558;BME280;60583;50.094;8.748;2023-05-02T11:40:35;101086.44;;;21.97;39.66
72558;BME280;60583;50.094;8.748;2023-05-02T11:43:14;101078.44;;;21.64;40.52
72558;BME280;60583;50.094;8.748;2023-05-02T11:45:40;101084.78;;;20.71;41.13
72558;BME280;60583;50.094;8.748;2023-05-02T11:48:07;101078.06;;;20.41;42.26
72558;BME280;60583;50.094;8.748;2023-05-02T11:50:39;101094.56;;;20.56;42.79
72558;BME280;60583;50.094;8.748;2023-05-02T11:53:09;101080.88;;;20.17;41.53
72558;BME280;60583;50.094;8.748;2023-05-02T11:55:35;101060.97;;;21.33;38.01
72558;BME280;60583;50.094;8.748;2023-05-02T11:58:00;101060.97;;;20.95;38.77
72558;BME280;60583;50.094;8.748;2023-05-02T12:00:26;101079.28;;;20.33;39.83
72558;BME280;60583;50.094;8.748;2023-05-02T12:02:52;101080.78;;;19.84;41.65
72558;BME280;60583;50.094;8.748;2023-05-02T12:05:26;101069.75;;;20.02;42.24
72558;BME280;60583;50.094;8.748;2023-05-02T12:07:54;101079.19;;;19.71;42.35
72558;BME280;60583;50.094;8.748;2023-05-02T12:10:19;101071.91;;;19.72;42.86
72558;BME280;60583;50.094;8.748;2023-05-02T12:12:44;101093.38;;;19.62;45.15
72558;BME280;60583;50.094;8.748;2023-05-02T12:15:11;101060.88;;;19.73;43.82
72558;BME280;60583;50.094;8.748;2023-05-02T12:17:42;101087.75;;;20.08;43.29
72558;BME280;60583;50.094;8.748;2023-05-02T12:20:08;101086.28;;;20.01;42.78
72558;BME280;60583;50.094;8.748;2023-05-02T12:22:34;101048.91;;;19.58;43.48
72558;BME280;60583;50.094;8.748;2023-05-02T12:25:01;101083.00;;;19.59;44.78
72558;BME280;60583;50.094;8.748;2023-05-02T12:27:28;101096.31;;;19.60;43.92
72558;BME280;60583;50.094;8.748;2023-05-02T12:29:53;101085.00;;;19.00;44.83
72558;BME280;60583;50.094;8.748;2023-05-02T12:32:32;101097.44;;;19.01;45.21
72558;BME280;60583;50.094;8.748;2023-05-02T12:34:59;101108.03;;;18.80;44.84
72558;BME280;60583;50.094;8.748;2023-05-02T12:37:26;101108.63;;;18.70;44.49
72558;BME280;60583;50.094;8.748;2023-05-02T12:39:52;101116.25;;;18.73;45.74
72558;BME280;60583;50.094;8.748;2023-05-02T12:42:21;101119.78;;;18.62;45.73
72558;BME280;60583;50.094;8.748;2023-05-02T12:44:49;101101.38;;;18.41;45.79
72558;BME280;60583;50.094;8.748;2023-05-02T12:47:16;101113.13;;;18.35;45.82
72558;BME280;60583;50.094;8.748;2023-05-02T12:49:56;101111.81;;;18.26;46.74
72558;BME280;60583;50.094;8.748;2023-05-02T12:52:50;101124.59;;;18.19;47.50
72558;BME280;60583;50.094;8.748;2023-05-02T12:55:24;101103.16;;;18.06;47.69
72558;BME280;60583;50.094;8.748;2023-05-02T12:57:50;101118.59;;;18.17;46.80
72558;BME280;60583;50.094;8.748;2023-05-02T13:00:16;101121.69;;;18.32;47.43
72558;BME280;60583;50.094;8.748;2023-05-02T13:02:42;101090.69;;;18.34;45.45
72558;BME280;60583;50.094;8.748;2023-05-02T13:05:17;101123.56;;;18.73;45.91
72558;BME280;60583;50.094;8.748;2023-05-02T13:07:43;101113.91;;;18.65;44.99
72558;BME280;60583;50.094;8.748;2023-05-02T13:10:09;101113.09;;;18.65;44.06
72558;BME280;60583;50.094;8.748;2023-05-02T13:12:38;101096.88;;;18.76;43.90
72558;BME280;60583;50.094;8.748;2023-05-02T13:15:05;101113.56;;;18.85;45.01
72558;BME280;60583;50.094;8.748;2023-05-02T13:17:31;101108.72;;;18.98;46.01
72558;BME280;60583;50.094;8.748;2023-05-02T13:19:56;101129.22;;;18.41;47.22
72558;BME280;60583;50.094;8.748;2023-05-02T13:22:22;101124.88;;;18.40;47.04
72558;BME280;60583;50.094;8.748;2023-05-02T13:24:48;101106.84;;;18.11;48.14
72558;BME280;60583;50.094;8.748;2023-05-02T13:27:13;101118.97;;;17.91;48.61
72558;BME280;60583;50.094;8.748;2023-05-02T13:29:39;101127.16;;;17.84;49.31
72558;BME280;60583;50.094;8.748;2023-05-02T13:32:04;101129.47;;;17.80;48.30
72558;BME280;60583;50.094;8.748;2023-05-02T13:34:30;101097.13;;;17.62;48.13
72558;BME280;60583;50.094;8.748;2023-05-02T13:36:55;101130.13;;;17.94;47.06